This is the latest recevied weather packets stored in our database for station/object SP2NBH-2. If no packets are shown the sender has not sent any weather packets the latest 10 day(s).
| Time | Temp. | Humidity | Pressure | Rain* | Wind** | Luminosity | Snow |
|---|---|---|---|---|---|---|---|
| 1777180462 | 7.22° C | 61% | 1016.9 hPa | - | - | - | - |
| 1777179562 | 6.11° C | 64% | 1016.6 hPa | - | - | - | - |
| 1777178695 | 5.56° C | 66% | 1016.3 hPa | - | - | - | - |
| 1777178662 | 5.56° C | 66% | 1016.3 hPa | - | - | - | - |
| 1777176954 | 4.44° C | 73% | 1015.6 hPa | - | - | - | - |
| 1777176054 | 3.89° C | 76% | 1015.2 hPa | - | - | - | - |
| 1777175154 | 3.89° C | 75% | 1015 hPa | - | - | - | - |
| 1777174254 | 3.33° C | 76% | 1014.8 hPa | - | - | - | - |
| 1777173354 | 3.33° C | 76% | 1014.5 hPa | - | - | - | - |
| 1777172454 | 3.89° C | 74% | 1014.2 hPa | - | - | - | - |
| 1777171554 | 3.89° C | 72% | 1014 hPa | - | - | - | - |
| 1777170654 | 3.89° C | 71% | 1013.8 hPa | - | - | - | - |
| 1777168855 | 4.44° C | 69% | 1013.2 hPa | - | - | - | - |
| 1777167955 | 4.44° C | 66% | 1012.7 hPa | - | - | - | - |
| 1777167055 | 4.44° C | 67% | 1012.1 hPa | - | - | - | - |
| 1777166155 | 4.44° C | 69% | 1011.9 hPa | - | - | - | - |
| 1777165255 | 4.44° C | 70% | 1011.6 hPa | - | - | - | - |
| 1777164355 | 4.44° C | 77% | 1011.4 hPa | - | - | - | - |
| 1777163455 | 4.44° C | 78% | 1011 hPa | - | - | - | - |
| 1777162555 | 3.89° C | 81% | 1010.5 hPa | - | - | - | - |
| 1777161655 | 3.33° C | 82% | 1010.2 hPa | - | - | - | - |
* Rain since midnight (hover to see other rain measurements)
** Current wind speed in m/s (hover to see current wind gust speed)